Twin Bridges, Montana
Current Conditions -  °F | °C
As of 11:53 AM on Tuesday 21 Oct 2014 (Local Time) from KDLN Reporting Station
Light Rain Light Rain  
Wind Chill: 38°   Ceiling: 5500
Heat Index: 46°   Visibility: 10mi
Dew Point: 42°   Wind: 21mph
Humidity: 86%   Direction: 200°SSW
Pressure: 29.81"   Gusts: NA
Location:  45.54°N, 112.33°W
Report Text: KDLN 211753Z AUTO 20018KT 10SM -RA OVC055 08/06 A2981 RMK AO2 PK WND 17044/1713 WSHFT 1707 SLP069 P0000 60000 T00780056 10161 20072 53025
Loading
Personal Weather Stations






























Interactive Weather Map
Tropical Storm Tracking
New forecast layout! Learn more

10-Day Weather Forecast

Advertisements
Track Severe Weather on mobile